Terminal Aerodrome Forecast
Issued by NWS

Home | Current Version | Previous Version | Text Only | Print | Product List | Glossary On
Versions: 1 2 3 4 5 6 7 8 9 10 11 12 13 14 15 16 17
832
FTUS46 KSTO 211750
TAFMHR
TAF
KMHR 211750Z 2118/2218 17015G20KT P6SM SCT035 BKN050
     FM220600 15020G25KT P6SM -RA OVC025
     FM220800 15025G35KT P6SM RA OVC015
     FM221200 15035G45KT P6SM RA OVC025
     FM221500 16023G30KT P6SM -RA OVC025=

USA.gov is the U.S. government's official web portal to all federal, state and local government web resources and services.